METAR / TAF

Die METAR- und TAF-Liste ist aus technischen Gründen (Verfügbarkeit, Update-Zyklen) nicht für ein Meteo-Briefing gedacht. Benutzen Sie stattdessen skybriefing der Skyguide  oder das TAMSI (MeteoSchweiz-eigene Meteo Selfbriefing-Plattform für Firmen aus der Aviatik; Anfragen über das

Kontaktformular

METAR Switzerland

METAR     LSZH 252320Z VRB01KT 9999 -SHRA FEW016 SCT030 BKN040
               03/01 Q1025 NOSIG=
METAR     LSZH 252350Z 30003KT 9999 BKN028 03/02 Q1025 NOSIG=
METAR     LSGG 252320Z AUTO 04012KT 9999 FEW063 SCT076 06/M02 Q1024
               NOSIG=
METAR     LSGG 252350Z AUTO 03012KT 9999 FEW075 SCT080 06/M03 Q1024
               NOSIG=
METAR     LFSB 252330Z AUTO 34006KT 300V030 9999 FEW015 BKN046
               BKN054 04/02 Q1027 TEMPO BKN008=
METAR     LSZB 252320Z AUTO 36006KT 310V060 9999 RASN BKN/// 03/M00
               Q1025 RERA=
METAR     LSZB 252350Z AUTO VRB03KT 9999 -RASN BKN/// 02/01 Q1025
               RESN=
METAR     LSZA 252320Z AUTO 04009KT 320V100 CAVOK 09/M09 Q1017=
METAR     LSZA 252350Z AUTO 05011G23KT 350V110 CAVOK 09/M09 Q1018=
METAR     LSZG 252320Z AUTO 03011G22KT 9999 -RA SCT030 SCT037
               BKN048 05/00 Q1025=
METAR     LSZG 252350Z AUTO 03014G26KT 9999 FEW030 05/M00 Q1025=
METAR     LSZR 252320Z AUTO VRB02KT 9999 BKN036 SCT050 03/01 Q1025=
METAR     LSZR 252350Z AUTO 25004KT 190V300 9999 -RA FEW029 BKN034
               04/01 Q1025 RERASN=
METAR     LSGS 252320Z AUTO 10003KT 060V140 9999 NCD 06/M03 Q1023=
METAR     LSGS 252350Z AUTO 26004KT 230V300 CAVOK 05/M03 Q1023=
METAR     LSGC 252320Z AUTO VRB02KT 9999 -SN BKN/// 01/M03 Q1024=
METAR     LSGC 252350Z AUTO VRB02KT 9999 -SN BKN/// 00/M03 Q1024=
METAR     LSZC 252320Z AUTO 30006KT 9999 DZ BKN041 SCT050 03/01
               Q1025=
METAR     LSZC 252350Z AUTO 29004KT 250V330 9999 -RA BKN024 03/02
               Q1025=
METAR RRA LSZL 252320Z AUTO 16005KT 080V190 9999NDV FEW100 09/M08
               Q1018 RMK=
METAR     LSZL 252350Z AUTO VRB04KT 9999NDV FEW100 10/M09 Q1018 RMK=
METAR     LSZS 252320Z AUTO 34004KT 300V040 9999 SCT049 SCT060
               M04/M15 Q1017 RESN=
METAR     LSZS 252350Z AUTO 04009G19KT 9999 BKN050 M04/M14 Q1017=
METAR RRA LSMA 252320Z AUTO 06009KT 9999NDV -SHRASN FEW017 BKN021
               OVC043 04/01 Q1025 RMK=
METAR     LSMA 252350Z AUTO 06013KT 8000NDV RA BKN017 BKN024 OVC047
               03/01 Q1025 RMK=
METAR RRA LSMD 252320Z AUTO 09002KT 9999NDV -RA SCT020 BKN029
               BKN074 03/02 Q1025 RMK=
METAR     LSMD 252350Z AUTO VRB01KT 9999NDV -RA FEW015 SCT030
               BKN036 03/01 Q1025 RMK=
METAR RRA LSME 252320Z AUTO VRB02KT 9999NDV -SHRA FEW020 BKN033
               OVC041 03/01 Q1025 RMK=
METAR     LSME 252350Z AUTO VRB02KT 9999NDV -RA SCT021 BKN035
               OVC040 03/01 Q1026 RMK=
METAR RRA LSMM 252320Z AUTO 04013KT 350V080 9999NDV -SHRA FEW018
               BKN050 OVC058 03/M01 Q1024 RMK=
METAR RRA LSMM 252350Z AUTO VRB02KT 9999NDV -SHRA BKN018 BKN031
               OVC053 02/00 Q1024 RESHRA RMK=
METAR RRA LSMP 252320Z AUTO VRB02KT 9999NDV -SHRA BKN048 BKN061
               04/M00 Q1025 RMK=
METAR     LSMP 252350Z AUTO 00000KT 9999NDV BKN046 OVC056 04/M00
               Q1025 RMK=
METAR     LSMS 252320Z AUTO 10003KT 060V140 9999 NCD 06/M03 Q1023=
METAR     LSMS 252350Z AUTO 26004KT 230V300 CAVOK 05/M03 Q1023=
Updated on Tuesday, 26 March 2019, 01:11

TAF Switzerland

TAF     LSZH 252025Z 2521/2703 VRB03KT 9999 FEW060 BKN085
             TX10/2614Z TN00/2605Z TEMPO 2521/2524 SHRA FEW040TCU
             PROB30 TEMPO 2600/2608 SHRASN FEW040TCU TEMPO
             2607/2621 03006KT=
TAF     LSGG 252025Z 2521/2703 05014KT CAVOK TX11/2615Z TN04/2606Z
             BECMG 2521/2523 05004KT BECMG 2608/2610 05015G30KT=
TAF RRA LFSB 251700Z 2518/2618 35009KT 9999 FEW045 BKN065 PROB40
             TEMPO 2518/2521 -SHRA FEW040TCU PROB30 TEMPO
             2518/2519 03015G30KT FEW030CB PROB40 TEMPO 2600/2608
             BKN014=
TAF AAB LFSB 252030Z 2520/2618 34008KT 9999 FEW015 BKN065 TEMPO
             2520/2524 -SHRA FEW040TCU PROB40 TEMPO 2520/2522
             33015G25KT 4000 SHRA BKN025 FEW040CB PROB30 TEMPO
             2521/2522 SHGSRA PROB40 TEMPO 2600/2608 BKN010=
TAF AAA LFSB 251909Z 2519/2618 34008KT 9999 FEW045 BKN065 TEMPO
             2519/2524 -SHRA FEW040TCU PROB40 TEMPO 2519/2522
             33015G25KT 4000 SHRA BKN025 FEW040CB PROB40 TEMPO
             2600/2608 BKN010=
TAF AAB LSGS 252008Z 2520/2524 CNL=
TAF     LSGS 251425Z 2515/2524 25012G25KT 9999 SCT080 BECMG
             2517/2519 VRB03KT=
TAF AAF LSZA 252050Z 2520/2524 CNL=
TAF     LSZA 251425Z 2515/2524 01015G25KT CAVOK TEMPO 2515/2522
             01025G40KT 9999 FEW065 BECMG 2522/2524 03008KT=
TAF AAC LSZB 252050Z 2520/2524 CNL=
TAF     LSZB 251425Z 2515/2524 34010KT 9999 BKN050 BKN070 TEMPO
             2515/2518 34015G25KT PROB30 TEMPO 2515/2524 SHRA
             SCT040TCU BECMG 2518/2521 VRB03KT=
TAF AAC LSZG 252050Z 2520/2524 CNL=
TAF     LSZG 251425Z 2515/2524 30010KT 9999 FEW040 BKN055 PROB30
             TEMPO 2517/2521 SHRA BECMG 2517/2520 05010G25KT=
TAF     LSZL 251725Z 2518/2603 05015G32KT 9999 FEW100 TEMPO
             2518/2603 CAVOK=
TAF AAD LSZR 252050Z 2520/2524 CNL=
TAF     LSZR 251425Z 2515/2524 30013KT 9999 BKN060 PROB40 TEMPO
             2515/2524 SHRA SCT040TCU TEMPO 2515/2519 32015G28KT=
TAF AAA LSGC 252008Z 2520/2524 CNL=
TAF     LSGC 251425Z 2515/2524 02008KT 9999 FEW020 BKN035 PROB30
             TEMPO 2516/2524 3000 SHSN BKN010=
TAF RRA LSZC 251425Z 2515/2524 VRB04KT 9999 VCSH BKN045 TEMPO
             2515/2524 4500 SHRA SCT040TCU PROB30 TEMPO 2521/2524
             2500 SHRASN=
TAF AAE LSZC 252050Z 2520/2524 CNL=
TAF AAE LSZS 252050Z 2520/2524 CNL=
TAF     LSZS 251425Z 2515/2524 02012G25KT 9999 BKN055 TX04/2515Z
             PROB40 TEMPO 2515/2524 4000 -SHSN TEMPO 2518/2522
             0800 SHSN VV004=
TAF     LSMA 251625Z 2517/2623 VRB03KT 9999 SCT040 OVC055 PROB40
             TEMPO 2517/2519 02015G25KT TEMPO 2517/2610 SHRA
             SCT040TCU TEMPO 2610/2616 04012KT=
TAF     LSMD 251625Z 2517/2623 32010KT 9999 BKN065 TEMPO 2517/2518
             33012G25KT TEMPO 2517/2522 SHRA SCT040TCU BECMG
             2518/2521 VRB03KT PROB40 TEMPO 2522/2609 SHRA
             FEW040TCU=
TAF     LSME 251625Z 2517/2623 VRB03KT 9999 FEW050 SCT090 BKN110
             PROB30 TEMPO 2517/2518 32015G25KT TEMPO 2517/2522
             SHRA SCT040TCU PROB40 TEMPO 2522/2609 SHRA FEW040TCU=
TAF     LSMM 251625Z 2517/2623 13007KT 8000 FEW016 SCT020 OVC035
             TEMPO 2517/2521 SHRA FEW040TCU TEMPO 2521/2610 4000
             SHRASN BKN014 PROB30 TEMPO 2612/2618 07012G25KT=
TAF     LSMP 251625Z 2517/2623 02010KT 9999 SCT060 BKN090 BECMG
             2520/2523 VRB03KT BECMG 2606/2609 04010G25KT=
Updated on Monday, 25 March 2019, 23:03